createdAt,value
2018-12-22T00:01:06.232Z,11.20
2018-12-22T00:03:33.668Z,11.16
2018-12-22T00:06:01.096Z,11.22
2018-12-22T00:08:28.533Z,11.14
2018-12-22T00:10:55.972Z,11.14
2018-12-22T00:13:23.413Z,11.11
2018-12-22T00:15:50.840Z,11.07
2018-12-22T00:18:18.273Z,11.15
2018-12-22T00:20:45.721Z,11.15
2018-12-22T00:23:13.420Z,11.16
2018-12-22T00:25:40.849Z,11.24
2018-12-22T00:28:08.293Z,11.18
2018-12-22T00:30:35.771Z,11.20
2018-12-22T00:33:03.209Z,11.18
2018-12-22T00:35:31.218Z,11.18
2018-12-22T00:37:58.660Z,11.05
2018-12-22T00:40:26.108Z,10.97
2018-12-22T00:42:53.548Z,10.85
2018-12-22T00:45:20.984Z,11.01
2018-12-22T00:47:48.423Z,10.89
2018-12-22T00:50:15.849Z,10.82
2018-12-22T00:52:43.288Z,10.77
2018-12-22T00:55:10.729Z,10.70
2018-12-22T00:57:38.156Z,10.74
2018-12-22T01:00:05.603Z,10.92
2018-12-22T01:02:33.028Z,10.87
2018-12-22T01:05:00.465Z,10.71
2018-12-22T01:07:27.895Z,10.76
2018-12-22T01:09:55.330Z,10.78
2018-12-22T01:12:22.748Z,10.78
2018-12-22T01:14:50.185Z,10.77
2018-12-22T01:17:17.609Z,10.78
2018-12-22T01:19:45.042Z,10.76
2018-12-22T01:22:12.530Z,10.81
2018-12-22T01:24:39.973Z,10.89
2018-12-22T01:27:07.400Z,10.84
2018-12-22T01:29:34.836Z,10.92
2018-12-22T01:32:02.261Z,10.99
2018-12-22T01:34:29.689Z,10.91
2018-12-22T01:36:57.124Z,10.99
2018-12-22T01:39:24.553Z,10.97
2018-12-22T01:41:52.076Z,11.04
2018-12-22T01:44:19.600Z,11.04
2018-12-22T01:46:47.061Z,11.03
2018-12-22T01:49:14.530Z,10.95
2018-12-22T01:51:41.962Z,10.92
2018-12-22T01:54:09.392Z,10.86
2018-12-22T01:56:36.824Z,10.82
2018-12-22T01:59:04.270Z,10.83
2018-12-22T02:01:31.692Z,10.88
2018-12-22T02:03:59.143Z,10.82
2018-12-22T02:06:26.567Z,10.80
2018-12-22T02:08:54.080Z,10.81
2018-12-22T02:11:21.509Z,10.99
2018-12-22T02:13:48.953Z,10.98
2018-12-22T02:16:16.390Z,10.99
2018-12-22T02:18:43.816Z,10.98
2018-12-22T02:21:11.251Z,10.89
2018-12-22T02:23:38.724Z,10.81
2018-12-22T02:26:06.153Z,10.84
2018-12-22T02:28:33.592Z,11.01
2018-12-22T02:31:01.023Z,10.99
2018-12-22T02:33:28.448Z,10.98
2018-12-22T02:35:55.917Z,10.81
2018-12-22T02:38:23.369Z,10.72
2018-12-22T02:40:50.799Z,10.85
2018-12-22T02:43:18.242Z,10.93
2018-12-22T02:45:45.677Z,10.91
2018-12-22T02:48:13.180Z,10.82
2018-12-22T02:50:40.612Z,10.79
2018-12-22T02:53:08.040Z,10.82
2018-12-22T02:55:35.477Z,10.79
2018-12-22T02:58:02.905Z,10.92
2018-12-22T03:00:30.354Z,10.90
2018-12-22T03:02:57.849Z,10.84
2018-12-22T03:05:25.286Z,10.85
2018-12-22T03:07:52.709Z,10.89
2018-12-22T03:10:20.213Z,11.02
2018-12-22T03:12:47.647Z,10.98
2018-12-22T03:15:15.131Z,11.00
2018-12-22T03:17:42.575Z,11.04
2018-12-22T03:20:10.015Z,11.18
2018-12-22T03:22:37.514Z,11.00
2018-12-22T03:25:04.949Z,10.94
2018-12-22T03:27:32.375Z,11.01
2018-12-22T03:29:59.876Z,11.08
2018-12-22T03:32:27.307Z,11.02
2018-12-22T03:34:54.838Z,10.97
2018-12-22T03:37:22.273Z,11.02
2018-12-22T03:39:49.709Z,11.03
2018-12-22T03:42:17.155Z,10.96
2018-12-22T03:44:44.585Z,10.86
2018-12-22T03:47:12.008Z,10.74
2018-12-22T03:49:39.446Z,10.56
2018-12-22T03:52:06.943Z,10.45
2018-12-22T03:54:34.402Z,10.41
2018-12-22T03:57:01.846Z,10.29
2018-12-22T03:59:29.344Z,10.13
2018-12-22T04:01:56.779Z,10.05
2018-12-22T04:04:24.286Z,10.04
2018-12-22T04:06:51.737Z,9.90
2018-12-22T04:09:19.297Z,9.75
2018-12-22T04:11:46.722Z,9.72
2018-12-22T04:14:14.226Z,9.73
2018-12-22T04:16:41.670Z,9.61
2018-12-22T04:19:09.093Z,9.55
2018-12-22T04:21:36.522Z,9.51
2018-12-22T04:24:03.956Z,9.47
2018-12-22T04:26:31.396Z,9.38
2018-12-22T04:28:58.857Z,9.40
2018-12-22T04:31:26.299Z,9.34
2018-12-22T04:33:53.728Z,9.39
2018-12-22T04:36:21.168Z,9.30
2018-12-22T04:38:49.180Z,9.28
2018-12-22T04:41:16.685Z,9.23
2018-12-22T04:43:44.100Z,9.16
2018-12-22T04:46:11.533Z,9.07
2018-12-22T04:48:38.966Z,9.07
2018-12-22T04:51:06.405Z,9.04
2018-12-22T04:53:33.830Z,8.96
2018-12-22T04:56:01.297Z,8.96
2018-12-22T04:58:28.763Z,8.97
2018-12-22T05:00:56.192Z,8.95
2018-12-22T05:03:23.626Z,8.95
2018-12-22T05:05:51.063Z,8.91
2018-12-22T05:08:18.489Z,8.81
2018-12-22T05:10:45.924Z,8.79
2018-12-22T05:13:13.356Z,8.75
2018-12-22T05:15:40.776Z,8.66
2018-12-22T05:18:08.198Z,8.61
2018-12-22T05:20:35.628Z,8.63
2018-12-22T05:23:03.059Z,8.61
2018-12-22T05:25:30.491Z,8.58
2018-12-22T05:27:57.925Z,8.56
2018-12-22T05:30:25.358Z,8.56
2018-12-22T05:32:52.789Z,8.58
2018-12-22T05:35:20.302Z,8.60
2018-12-22T05:37:47.726Z,8.53
2018-12-22T05:40:15.230Z,8.55
2018-12-22T05:42:42.710Z,8.62
2018-12-22T05:45:10.136Z,8.56
2018-12-22T05:47:37.574Z,8.59
2018-12-22T05:50:05.053Z,8.51
2018-12-22T05:52:32.491Z,8.56
2018-12-22T05:54:59.912Z,8.56
2018-12-22T05:57:27.344Z,8.54
2018-12-22T06:00:00.481Z,8.49
2018-12-22T06:02:24.180Z,8.48
2018-12-22T06:04:51.618Z,8.44
2018-12-22T06:07:19.064Z,8.53
2018-12-22T06:09:46.563Z,8.42
2018-12-22T06:12:13.989Z,8.28
2018-12-22T06:14:41.482Z,8.33
2018-12-22T06:17:08.921Z,8.20
2018-12-22T06:19:36.352Z,8.12
2018-12-22T06:22:03.796Z,8.09
2018-12-22T06:24:31.231Z,8.05
2018-12-22T06:26:58.661Z,8.00
2018-12-22T06:29:26.539Z,8.05
2018-12-22T06:31:53.968Z,8.04
2018-12-22T06:34:21.395Z,8.08
2018-12-22T06:36:48.821Z,7.94
2018-12-22T06:39:16.245Z,8.04
2018-12-22T06:41:43.673Z,7.98
2018-12-22T06:44:11.092Z,7.91
2018-12-22T06:46:38.525Z,7.91
2018-12-22T06:49:05.957Z,7.97
2018-12-22T06:51:33.385Z,7.84
2018-12-22T06:54:00.810Z,7.83
2018-12-22T06:56:28.241Z,7.84
2018-12-22T06:58:55.665Z,7.92
2018-12-22T07:01:23.105Z,7.92
2018-12-22T07:03:57.008Z,7.90
2018-12-22T07:06:24.441Z,7.88
2018-12-22T07:08:51.876Z,7.86
2018-12-22T07:11:19.354Z,7.81
2018-12-22T07:13:46.792Z,7.84
2018-12-22T07:16:14.209Z,7.79
2018-12-22T07:18:41.991Z,7.82
2018-12-22T07:21:09.424Z,7.84
2018-12-22T07:23:36.862Z,7.87
2018-12-22T07:26:04.290Z,7.93
2018-12-22T07:28:31.720Z,8.02
2018-12-22T07:30:59.153Z,8.04
2018-12-22T07:33:26.592Z,8.12
2018-12-22T07:35:54.026Z,8.09
2018-12-22T07:38:22.205Z,8.07
2018-12-22T07:40:49.641Z,8.02
2018-12-22T07:43:17.074Z,7.84
2018-12-22T07:45:44.492Z,8.02
2018-12-22T07:48:11.921Z,7.95
2018-12-22T07:50:39.352Z,8.13
2018-12-22T07:53:06.791Z,8.24
2018-12-22T07:55:34.213Z,8.27
2018-12-22T07:58:01.661Z,8.30
2018-12-22T08:00:34.732Z,8.34
2018-12-22T08:02:58.506Z,8.42
2018-12-22T08:05:25.939Z,8.41
2018-12-22T08:07:53.377Z,8.51
2018-12-22T08:10:21.329Z,8.49
2018-12-22T08:12:48.769Z,8.51
2018-12-22T08:15:16.267Z,8.56
2018-12-22T08:17:43.722Z,8.61
2018-12-22T08:20:11.194Z,8.62
2018-12-22T08:22:38.630Z,8.66
2018-12-22T08:25:06.057Z,8.69
2018-12-22T08:27:33.488Z,8.67
2018-12-22T08:30:00.924Z,8.74
2018-12-22T08:32:28.432Z,8.71
2018-12-22T08:34:55.858Z,8.64
2018-12-22T08:37:23.292Z,8.72
2018-12-22T08:39:50.720Z,8.66
2018-12-22T08:42:18.144Z,8.66
2018-12-22T08:44:45.577Z,8.65
2018-12-22T08:47:13.016Z,8.70
2018-12-22T08:49:40.436Z,8.71
2018-12-22T08:52:07.873Z,8.68
2018-12-22T08:54:35.292Z,8.65
2018-12-22T08:57:02.796Z,8.70
2018-12-22T08:59:30.212Z,8.63
2018-12-22T09:01:57.632Z,8.57
2018-12-22T09:04:25.069Z,8.63
2018-12-22T09:06:52.522Z,8.66
2018-12-22T09:09:19.949Z,8.70
2018-12-22T09:11:47.441Z,8.63
2018-12-22T09:14:14.866Z,8.67
2018-12-22T09:16:42.292Z,8.58
2018-12-22T09:19:09.712Z,8.58
2018-12-22T09:21:37.152Z,8.59
2018-12-22T09:24:04.630Z,8.75
2018-12-22T09:26:32.160Z,8.76
2018-12-22T09:28:59.645Z,8.75
2018-12-22T09:31:27.208Z,8.83
2018-12-22T09:33:54.644Z,8.90
2018-12-22T09:36:22.121Z,8.86
2018-12-22T09:38:49.547Z,8.88
2018-12-22T09:41:16.981Z,8.79
2018-12-22T09:43:44.413Z,8.84
2018-12-22T09:46:11.845Z,8.87
2018-12-22T09:48:39.274Z,8.79
2018-12-22T09:51:06.704Z,8.74
2018-12-22T09:53:34.157Z,8.75
2018-12-22T09:56:01.580Z,8.81
2018-12-22T09:58:29.013Z,8.94
2018-12-22T10:00:56.441Z,8.91
2018-12-22T10:03:23.877Z,8.99
2018-12-22T10:05:51.302Z,9.08
2018-12-22T10:08:18.740Z,9.03
2018-12-22T10:10:46.170Z,9.01
2018-12-22T10:13:13.601Z,8.96
2018-12-22T10:15:41.045Z,8.77
2018-12-22T10:18:08.532Z,8.78
2018-12-22T10:20:35.951Z,8.74
2018-12-22T10:23:03.383Z,8.70
2018-12-22T10:25:30.803Z,8.73
2018-12-22T10:27:58.245Z,8.65
2018-12-22T10:30:25.668Z,8.68
2018-12-22T10:32:53.234Z,8.56
2018-12-22T10:35:20.661Z,8.65
2018-12-22T10:37:48.253Z,8.61
2018-12-22T10:40:15.748Z,8.49
2018-12-22T10:42:43.270Z,8.41
2018-12-22T10:45:10.690Z,8.41
2018-12-22T10:47:38.184Z,8.39
2018-12-22T10:50:05.640Z,8.38
2018-12-22T10:52:33.080Z,8.40
2018-12-22T10:55:01.323Z,8.31
2018-12-22T10:57:28.749Z,8.33
2018-12-22T10:59:56.183Z,8.29
2018-12-22T11:02:23.827Z,8.28
2018-12-22T11:04:51.313Z,8.19
2018-12-22T11:07:18.732Z,8.16
2018-12-22T11:09:46.160Z,8.04
2018-12-22T11:12:13.588Z,8.17
2018-12-22T11:14:41.021Z,8.03
2018-12-22T11:17:08.445Z,8.03
2018-12-22T11:19:35.864Z,7.97
2018-12-22T11:22:03.291Z,7.98
2018-12-22T11:24:30.723Z,7.85
2018-12-22T11:26:58.150Z,7.84
2018-12-22T11:29:25.576Z,7.81
2018-12-22T11:31:52.992Z,7.82
2018-12-22T11:34:20.497Z,7.80
2018-12-22T11:36:48.188Z,7.74
2018-12-22T11:39:15.604Z,7.82
2018-12-22T11:41:43.028Z,7.84
2018-12-22T11:44:10.524Z,7.77
2018-12-22T11:46:37.948Z,7.74
2018-12-22T11:49:05.378Z,7.74
2018-12-22T11:51:32.796Z,7.74
2018-12-22T11:54:00.220Z,7.78
2018-12-22T11:56:27.640Z,7.57
2018-12-22T11:58:55.058Z,7.47
2018-12-22T12:01:22.488Z,7.33
2018-12-22T12:03:49.921Z,7.34
2018-12-22T12:06:17.344Z,7.41
2018-12-22T12:08:44.760Z,7.21
2018-12-22T12:11:12.253Z,7.10
2018-12-22T12:13:39.689Z,7.05
2018-12-22T12:16:07.112Z,6.94
2018-12-22T12:18:34.765Z,7.00
2018-12-22T12:21:02.736Z,6.82
2018-12-22T12:23:30.149Z,6.87
2018-12-22T12:25:57.569Z,6.95
2018-12-22T12:28:25.040Z,6.88
2018-12-22T12:30:52.456Z,6.93
2018-12-22T12:33:19.885Z,6.84
2018-12-22T12:35:47.327Z,6.81
2018-12-22T12:38:14.744Z,6.84
2018-12-22T12:40:42.241Z,6.84
2018-12-22T12:43:09.656Z,6.79
2018-12-22T12:45:37.078Z,6.78
2018-12-22T12:48:04.500Z,6.74
2018-12-22T12:50:31.916Z,6.85
2018-12-22T12:52:59.350Z,6.86
2018-12-22T12:55:26.796Z,6.87
2018-12-22T12:57:54.200Z,6.87
2018-12-22T13:00:21.624Z,6.78
2018-12-22T13:02:49.056Z,6.73
2018-12-22T13:05:16.480Z,6.63
2018-12-22T13:07:43.908Z,6.75
2018-12-22T13:10:11.329Z,6.78
2018-12-22T13:12:38.758Z,6.61
2018-12-22T13:15:06.232Z,6.50
2018-12-22T13:17:33.652Z,6.49
2018-12-22T13:20:01.108Z,6.42
2018-12-22T13:22:28.510Z,6.43
2018-12-22T13:24:55.937Z,6.54
2018-12-22T13:27:23.360Z,6.50
2018-12-22T13:29:50.789Z,6.59
2018-12-22T13:32:18.216Z,6.61
2018-12-22T13:34:48.194Z,6.61
2018-12-22T13:37:15.684Z,6.69
2018-12-22T13:39:43.108Z,6.69
2018-12-22T13:42:10.525Z,6.74
2018-12-22T13:44:37.958Z,6.74
2018-12-22T13:47:05.367Z,6.73
2018-12-22T13:49:32.892Z,6.69
2018-12-22T13:52:00.409Z,6.65
2018-12-22T13:54:27.831Z,6.62
2018-12-22T13:56:55.249Z,6.72
2018-12-22T13:59:22.685Z,6.65
2018-12-22T14:01:50.108Z,6.74
2018-12-22T14:04:17.539Z,6.60
2018-12-22T14:06:44.964Z,6.56
2018-12-22T14:09:12.405Z,6.50
2018-12-22T14:11:40.832Z,6.51
2018-12-22T14:14:08.321Z,6.49
2018-12-22T14:16:35.774Z,6.46
2018-12-22T14:19:03.212Z,6.46
2018-12-22T14:21:30.654Z,6.44
2018-12-22T14:23:58.076Z,6.50
2018-12-22T14:26:25.502Z,6.54
2018-12-22T14:28:52.938Z,6.46
2018-12-22T14:31:20.373Z,6.43
2018-12-22T14:33:47.807Z,6.50
2018-12-22T14:36:15.246Z,6.46
2018-12-22T14:38:42.682Z,6.53
2018-12-22T14:41:10.152Z,6.47
2018-12-22T14:43:37.608Z,6.45
2018-12-22T14:46:05.036Z,6.49
2018-12-22T14:48:32.476Z,6.52
2018-12-22T14:50:59.976Z,6.53
2018-12-22T14:53:27.401Z,6.47
2018-12-22T14:55:54.892Z,6.49
2018-12-22T14:58:22.321Z,6.55
2018-12-22T15:00:49.744Z,6.51
2018-12-22T15:03:17.172Z,6.56
2018-12-22T15:05:44.608Z,6.61
2018-12-22T15:08:12.035Z,6.49
2018-12-22T15:10:39.468Z,6.64
2018-12-22T15:13:06.897Z,6.58
2018-12-22T15:15:34.327Z,6.62
2018-12-22T15:18:01.745Z,6.51
2018-12-22T15:20:29.168Z,6.48
2018-12-22T15:22:56.589Z,6.48
2018-12-22T15:25:24.042Z,6.60
2018-12-22T15:27:51.533Z,6.52
2018-12-22T15:30:18.963Z,6.43
2018-12-22T15:32:54.377Z,6.52
2018-12-22T15:35:15.814Z,6.50
2018-12-22T15:37:43.244Z,6.50
2018-12-22T15:40:10.672Z,6.44
2018-12-22T15:42:38.104Z,6.46
2018-12-22T15:45:05.580Z,6.47
2018-12-22T15:47:33.013Z,6.46
2018-12-22T15:50:00.461Z,6.52
2018-12-22T15:52:27.893Z,6.51
2018-12-22T15:54:55.337Z,6.61
2018-12-22T15:57:22.761Z,6.55
2018-12-22T15:59:50.276Z,6.53
2018-12-22T16:02:18.873Z,6.51
2018-12-22T16:04:46.522Z,6.59
2018-12-22T16:07:14.061Z,6.54
2018-12-22T16:09:41.488Z,6.57
2018-12-22T16:12:08.929Z,6.59
2018-12-22T16:14:36.360Z,6.56
2018-12-22T16:17:03.805Z,6.58
2018-12-22T16:19:31.260Z,6.54
2018-12-22T16:21:58.696Z,6.51
2018-12-22T16:24:26.133Z,6.46
2018-12-22T16:26:53.569Z,6.49
2018-12-22T16:29:21.000Z,6.48
2018-12-22T16:31:48.436Z,6.47
2018-12-22T16:34:15.865Z,6.46
2018-12-22T16:36:43.299Z,6.43
2018-12-22T16:39:10.725Z,6.46
2018-12-22T16:41:38.160Z,6.36
2018-12-22T16:44:05.585Z,6.28
2018-12-22T16:46:33.019Z,6.33
2018-12-22T16:49:00.456Z,6.31
2018-12-22T16:51:27.884Z,6.27
2018-12-22T16:53:55.312Z,6.14
2018-12-22T16:56:22.805Z,6.23
2018-12-22T16:58:50.240Z,6.23
2018-12-22T17:01:17.676Z,6.20
2018-12-22T17:03:45.116Z,6.18
2018-12-22T17:06:12.556Z,6.21
2018-12-22T17:08:39.984Z,6.25
2018-12-22T17:11:07.413Z,6.22
2018-12-22T17:13:34.934Z,6.36
2018-12-22T17:16:02.482Z,6.25
2018-12-22T17:18:29.905Z,6.31
2018-12-22T17:20:57.353Z,6.33
2018-12-22T17:23:24.781Z,6.26
2018-12-22T17:25:52.224Z,6.25
2018-12-22T17:28:28.044Z,6.24
2018-12-22T17:30:49.064Z,6.26
2018-12-22T17:33:19.078Z,6.27
2018-12-22T17:35:45.906Z,6.27
2018-12-22T17:38:13.337Z,6.24
2018-12-22T17:40:40.770Z,6.25
2018-12-22T17:43:08.197Z,6.31
2018-12-22T17:45:35.720Z,6.32
2018-12-22T17:48:03.225Z,6.33
2018-12-22T17:50:30.645Z,6.44
2018-12-22T17:52:59.669Z,6.34
2018-12-22T17:55:27.204Z,6.33
2018-12-22T17:57:54.635Z,6.43
2018-12-22T18:00:22.125Z,6.36
2018-12-22T18:02:49.629Z,6.39
2018-12-22T18:05:17.064Z,6.40
2018-12-22T18:07:44.578Z,6.43
2018-12-22T18:10:12.004Z,6.31
2018-12-22T18:12:39.443Z,6.43
2018-12-22T18:15:06.946Z,6.37
2018-12-22T18:17:34.377Z,6.32
2018-12-22T18:20:01.865Z,6.32
2018-12-22T18:22:29.314Z,6.35
2018-12-22T18:24:56.880Z,6.26
2018-12-22T18:27:24.312Z,6.27
2018-12-22T18:29:51.796Z,6.28
2018-12-22T18:32:19.259Z,6.28
2018-12-22T18:34:46.713Z,6.38
2018-12-22T18:37:14.156Z,6.40
2018-12-22T18:39:41.586Z,6.33
2018-12-22T18:42:09.025Z,6.38
2018-12-22T18:44:36.544Z,6.38
2018-12-22T18:47:03.988Z,6.39
2018-12-22T18:49:31.421Z,6.35
2018-12-22T18:51:58.856Z,6.46
2018-12-22T18:54:26.287Z,6.34
2018-12-22T18:56:53.717Z,6.31
2018-12-22T18:59:21.327Z,6.31
2018-12-22T19:01:48.773Z,6.37
2018-12-22T19:04:16.210Z,6.41
2018-12-22T19:06:43.649Z,6.34
2018-12-22T19:09:11.077Z,6.29
2018-12-22T19:11:38.521Z,6.25
2018-12-22T19:14:05.984Z,6.30
2018-12-22T19:16:33.497Z,6.25
2018-12-22T19:19:00.929Z,6.19
2018-12-22T19:21:28.372Z,6.29
2018-12-22T19:23:55.805Z,6.35
2018-12-22T19:26:23.272Z,6.42
2018-12-22T19:28:50.707Z,6.50
2018-12-22T19:31:18.131Z,6.51
2018-12-22T19:33:53.260Z,6.53
2018-12-22T19:36:14.976Z,6.63
2018-12-22T19:38:42.412Z,6.64
2018-12-22T19:41:09.904Z,6.63
2018-12-22T19:43:37.337Z,6.59
2018-12-22T19:46:04.761Z,6.73
2018-12-22T19:48:32.190Z,6.74
2018-12-22T19:50:59.619Z,6.79
2018-12-22T19:53:27.055Z,6.93
2018-12-22T19:55:54.490Z,7.01
2018-12-22T19:58:21.932Z,7.10
2018-12-22T20:00:49.368Z,7.12
2018-12-22T20:03:16.799Z,7.11
2018-12-22T20:05:44.296Z,7.13
2018-12-22T20:08:11.732Z,7.11
2018-12-22T20:10:39.164Z,7.13
2018-12-22T20:13:06.592Z,7.07
2018-12-22T20:15:34.032Z,7.05
2018-12-22T20:18:01.472Z,6.92
2018-12-22T20:20:29.705Z,7.00
2018-12-22T20:22:57.241Z,6.98
2018-12-22T20:25:24.676Z,7.08
2018-12-22T20:27:52.109Z,7.14
2018-12-22T20:30:19.540Z,7.09
2018-12-22T20:32:46.972Z,7.06
2018-12-22T20:35:14.396Z,7.05
2018-12-22T20:37:41.833Z,7.07
2018-12-22T20:40:09.264Z,7.06
2018-12-22T20:42:36.756Z,7.10
2018-12-22T20:45:04.184Z,7.08
2018-12-22T20:47:31.614Z,7.08
2018-12-22T20:49:59.133Z,7.16
2018-12-22T20:52:26.567Z,7.05
2018-12-22T20:54:54.049Z,7.08
2018-12-22T20:57:21.507Z,7.11
2018-12-22T20:59:48.942Z,7.10
2018-12-22T21:02:16.380Z,7.09
2018-12-22T21:04:43.889Z,7.06
2018-12-22T21:07:11.336Z,7.00
2018-12-22T21:09:38.796Z,7.07
2018-12-22T21:12:06.252Z,7.10
2018-12-22T21:14:33.684Z,7.10
2018-12-22T21:17:01.108Z,7.15
2018-12-22T21:19:28.628Z,7.25
2018-12-22T21:21:56.089Z,7.19
2018-12-22T21:24:23.533Z,7.26
2018-12-22T21:26:50.973Z,7.35
2018-12-22T21:29:18.412Z,7.28
2018-12-22T21:31:45.916Z,7.34
2018-12-22T21:34:13.348Z,7.40
2018-12-22T21:36:41.161Z,7.37
2018-12-22T21:39:08.696Z,7.49
2018-12-22T21:41:36.134Z,7.55
2018-12-22T21:44:03.575Z,7.50
2018-12-22T21:46:31.011Z,7.47
2018-12-22T21:48:58.444Z,7.44
2018-12-22T21:51:25.873Z,7.46
2018-12-22T21:53:53.338Z,7.39
2018-12-22T21:56:20.756Z,7.31
2018-12-22T21:58:48.230Z,7.27
2018-12-22T22:01:15.625Z,7.28
2018-12-22T22:03:43.056Z,7.30
2018-12-22T22:06:10.491Z,7.37
2018-12-22T22:08:37.928Z,7.36
2018-12-22T22:11:06.025Z,7.41
2018-12-22T22:13:33.513Z,7.39
2018-12-22T22:16:00.942Z,7.42
2018-12-22T22:18:28.383Z,7.46
2018-12-22T22:20:55.963Z,7.44
2018-12-22T22:23:23.462Z,7.47
2018-12-22T22:25:50.896Z,7.50
2018-12-22T22:28:18.333Z,7.47
2018-12-22T22:30:45.862Z,7.55
2018-12-22T22:33:13.520Z,7.58
2018-12-22T22:35:40.972Z,7.52
2018-12-22T22:38:08.585Z,7.60
2018-12-22T22:40:36.071Z,7.58
2018-12-22T22:43:03.524Z,7.55
2018-12-22T22:45:30.944Z,7.57
2018-12-22T22:47:58.437Z,7.63
2018-12-22T22:50:25.874Z,7.59
2018-12-22T22:52:53.301Z,7.65
2018-12-22T22:55:20.733Z,7.72
2018-12-22T22:57:48.164Z,7.66
2018-12-22T23:00:20.675Z,7.62
2018-12-22T23:02:48.097Z,7.69
2018-12-22T23:05:15.527Z,7.72
2018-12-22T23:07:42.962Z,7.77
2018-12-22T23:10:10.469Z,7.75
2018-12-22T23:12:37.900Z,7.76
2018-12-22T23:15:05.331Z,7.74
2018-12-22T23:17:32.770Z,7.73
2018-12-22T23:20:00.276Z,7.74
2018-12-22T23:22:27.796Z,7.76
2018-12-22T23:24:55.229Z,7.78
2018-12-22T23:27:22.658Z,7.73
2018-12-22T23:29:50.121Z,7.69
2018-12-22T23:32:17.552Z,7.66
2018-12-22T23:34:44.997Z,7.76
2018-12-22T23:37:12.480Z,7.74
2018-12-22T23:39:39.922Z,7.70
2018-12-22T23:42:07.344Z,7.69
2018-12-22T23:44:34.777Z,7.67
2018-12-22T23:47:02.208Z,7.65
2018-12-22T23:49:29.648Z,7.71
2018-12-22T23:51:57.076Z,7.78
2018-12-22T23:54:24.600Z,7.69
2018-12-22T23:56:52.032Z,7.72
2018-12-22T23:59:19.476Z,7.81
